Terminal Aerodrome Forecast
Issued by NWS

Home | Current Version | Previous Version | Text Only | Print | Product List | Glossary On
Versions: 1 2 3 4 5 6 7 8 9 10 11 12 13 14
000
FTUS45 KFGZ 281723
TAFSEZ
TAF
KSEZ 281723Z 2818/2918 15007KT P6SM FEW110
     FM282000 22009KT P6SM BKN090
     FM290200 VRB05KT P6SM BKN090
     FM290500 05008KT P6SM BKN090
     FM291600 15007KT P6SM BKN080=

USA.gov is the U.S. government's official web portal to all federal, state and local government web resources and services.